KMEM/MEM METAR and TAF weather

Enter ICAO airport designator
Station Type Date Time Source
KMEM METAR 2020/04/05 15:54 UTC NOAA

KMEM 051554Z 01003KT 10SM CLR 17/11 A3012 RMK AO2 SLP198 T01720106


Station Type Date Time Source
KMEM Decoded METAR 2020/04/05 15:54 UTC NOAA

MEMPHIS INTERNATIONAL AIRPORT , TN, United States (KMEM) 35-02N 089-59W 86M
Apr 05, 2020 - 11:54 AM EDT / 2020.04.05 1554 UTC
Wind: from the N (010 degrees) at 3 MPH (3 KT):0
Visibility: 10 mile(s):0
Sky conditions: clear
Temperature: 63.0 F (17.2 C)
Dew Point: 51.1 F (10.6 C)
Relative Humidity: 65%
Pressure (altimeter): 30.12 in. Hg (1019 hPa)
ob: KMEM 051554Z 01003KT 10SM CLR 17/11 A3012 RMK AO2 SLP198 T01720106
cycle: 16

Station Type Date Time Source
KMEM TAF 2020/04/05 15:06 UTC NOAA

TAF
AMD KMEM 051505Z 0515/0618 34005KT P6SM FEW250
FM051600 35006KT P6SM FEW040 SCT250
FM060100 03005KT P6SM FEW050 SCT250
FM060700 07003KT P6SM SCT250
FM061100 10004KT P6SM SCT250

Example: see airport list